sensor_id;sensor_type;location;lat;lon;timestamp;pressure;altitude;pressure_sealevel;temperature;humidity
72961;BME280;61141;46.204;19.774;2024-01-11T00:02:01;101888.47;;;-5.64;100.00
72961;BME280;61141;46.204;19.774;2024-01-11T00:05:04;101883.69;;;-5.14;100.00
72961;BME280;61141;46.204;19.774;2024-01-11T00:08:07;101869.84;;;-5.71;100.00
72961;BME280;61141;46.204;19.774;2024-01-11T00:11:10;101855.25;;;-5.98;99.99
72961;BME280;61141;46.204;19.774;2024-01-11T00:14:13;101878.84;;;-5.83;100.00
72961;BME280;61141;46.204;19.774;2024-01-11T00:17:16;101870.63;;;-5.52;100.00
72961;BME280;61141;46.204;19.774;2024-01-11T00:20:19;101867.19;;;-5.41;100.00
72961;BME280;61141;46.204;19.774;2024-01-11T00:23:22;101854.28;;;-5.26;100.00
72961;BME280;61141;46.204;19.774;2024-01-11T00:26:25;101866.75;;;-5.68;98.14
72961;BME280;61141;46.204;19.774;2024-01-11T00:29:28;101866.44;;;-5.89;97.56
72961;BME280;61141;46.204;19.774;2024-01-11T00:32:31;101864.19;;;-5.92;97.81
72961;BME280;61141;46.204;19.774;2024-01-11T00:35:34;101856.59;;;-5.89;98.65
72961;BME280;61141;46.204;19.774;2024-01-11T00:38:37;101859.16;;;-6.01;98.47
72961;BME280;61141;46.204;19.774;2024-01-11T00:41:40;101859.41;;;-6.02;98.77
72961;BME280;61141;46.204;19.774;2024-01-11T00:44:42;101853.31;;;-6.09;99.95
72961;BME280;61141;46.204;19.774;2024-01-11T00:47:47;101866.50;;;-5.96;99.79
72961;BME280;61141;46.204;19.774;2024-01-11T00:50:50;101864.53;;;-5.71;99.09
72961;BME280;61141;46.204;19.774;2024-01-11T00:53:53;101864.81;;;-5.79;98.71
72961;BME280;61141;46.204;19.774;2024-01-11T00:56:56;101861.78;;;-5.35;99.35
72961;BME280;61141;46.204;19.774;2024-01-11T00:59:58;101849.50;;;-5.83;96.37
72961;BME280;61141;46.204;19.774;2024-01-11T01:03:01;101840.81;;;-5.61;98.60
72961;BME280;61141;46.204;19.774;2024-01-11T01:06:04;101850.47;;;-5.78;96.64
72961;BME280;61141;46.204;19.774;2024-01-11T01:09:08;101854.72;;;-6.25;95.48
72961;BME280;61141;46.204;19.774;2024-01-11T01:12:10;101830.78;;;-5.95;98.13
72961;BME280;61141;46.204;19.774;2024-01-11T01:15:13;101846.97;;;-6.08;96.61
72961;BME280;61141;46.204;19.774;2024-01-11T01:18:17;101846.50;;;-6.23;96.04
72961;BME280;61141;46.204;19.774;2024-01-11T01:21:20;101827.75;;;-6.35;96.09
72961;BME280;61141;46.204;19.774;2024-01-11T01:24:23;101838.13;;;-6.45;96.39
72961;BME280;61141;46.204;19.774;2024-01-11T01:27:25;101839.41;;;-6.54;96.39
72961;BME280;61141;46.204;19.774;2024-01-11T01:30:28;101841.81;;;-6.10;98.43
72961;BME280;61141;46.204;19.774;2024-01-11T01:33:31;101830.59;;;-6.30;98.26
72961;BME280;61141;46.204;19.774;2024-01-11T01:36:34;101835.25;;;-6.43;97.87
72961;BME280;61141;46.204;19.774;2024-01-11T01:39:38;101824.28;;;-6.17;98.43
72961;BME280;61141;46.204;19.774;2024-01-11T01:42:45;101826.53;;;-5.84;98.42
72961;BME280;61141;46.204;19.774;2024-01-11T01:45:48;101826.03;;;-5.93;97.29
72961;BME280;61141;46.204;19.774;2024-01-11T01:48:56;101830.19;;;-6.15;95.78
72961;BME280;61141;46.204;19.774;2024-01-11T01:51:59;101824.19;;;-6.47;95.46
72961;BME280;61141;46.204;19.774;2024-01-11T01:55:02;101828.03;;;-6.43;96.93
72961;BME280;61141;46.204;19.774;2024-01-11T01:58:06;101807.88;;;-6.32;98.81
72961;BME280;61141;46.204;19.774;2024-01-11T02:01:09;101815.81;;;-6.50;96.82
72961;BME280;61141;46.204;19.774;2024-01-11T02:04:13;101809.47;;;-6.49;97.11
72961;BME280;61141;46.204;19.774;2024-01-11T02:07:18;101804.16;;;-6.49;97.60
72961;BME280;61141;46.204;19.774;2024-01-11T02:10:21;101787.69;;;-5.92;100.00
72961;BME280;61141;46.204;19.774;2024-01-11T02:13:25;101792.47;;;-6.30;98.67
72961;BME280;61141;46.204;19.774;2024-01-11T02:16:28;101793.19;;;-6.23;97.75
72961;BME280;61141;46.204;19.774;2024-01-11T02:19:31;101793.16;;;-5.87;99.22
72961;BME280;61141;46.204;19.774;2024-01-11T02:22:38;101796.28;;;-5.78;98.44
72961;BME280;61141;46.204;19.774;2024-01-11T02:25:43;101793.22;;;-5.64;97.37
72961;BME280;61141;46.204;19.774;2024-01-11T02:28:45;101766.41;;;-6.46;95.53
72961;BME280;61141;46.204;19.774;2024-01-11T02:31:48;101783.19;;;-6.46;95.12
72961;BME280;61141;46.204;19.774;2024-01-11T02:34:51;101777.94;;;-6.52;96.56
72961;BME280;61141;46.204;19.774;2024-01-11T02:37:55;101774.81;;;-6.68;96.09
72961;BME280;61141;46.204;19.774;2024-01-11T02:40:59;101753.50;;;-6.31;99.58
72961;BME280;61141;46.204;19.774;2024-01-11T02:44:02;101761.94;;;-6.52;97.07
72961;BME280;61141;46.204;19.774;2024-01-11T02:47:05;101756.88;;;-6.79;95.81
72961;BME280;61141;46.204;19.774;2024-01-11T02:50:08;101750.69;;;-6.73;96.39
72961;BME280;61141;46.204;19.774;2024-01-11T02:53:11;101752.56;;;-6.55;97.41
72961;BME280;61141;46.204;19.774;2024-01-11T02:56:14;101745.97;;;-6.52;97.15
72961;BME280;61141;46.204;19.774;2024-01-11T02:59:17;101723.00;;;-6.53;97.00
72961;BME280;61141;46.204;19.774;2024-01-11T03:02:20;101747.00;;;-6.35;97.30
72961;BME280;61141;46.204;19.774;2024-01-11T03:05:23;101745.00;;;-6.22;96.90
72961;BME280;61141;46.204;19.774;2024-01-11T03:08:26;101742.31;;;-6.22;97.13
72961;BME280;61141;46.204;19.774;2024-01-11T03:11:29;101731.25;;;-6.55;95.41
72961;BME280;61141;46.204;19.774;2024-01-11T03:14:32;101735.06;;;-6.51;95.91
72961;BME280;61141;46.204;19.774;2024-01-11T03:17:35;101723.56;;;-6.63;96.12
72961;BME280;61141;46.204;19.774;2024-01-11T03:20:39;101720.06;;;-6.64;95.84
72961;BME280;61141;46.204;19.774;2024-01-11T03:23:41;101739.09;;;-6.60;95.79
72961;BME280;61141;46.204;19.774;2024-01-11T03:26:44;101723.81;;;-6.89;94.55
72961;BME280;61141;46.204;19.774;2024-01-11T03:29:47;101729.00;;;-6.40;98.29
72961;BME280;61141;46.204;19.774;2024-01-11T03:32:52;101723.44;;;-6.57;95.72
72961;BME280;61141;46.204;19.774;2024-01-11T03:35:55;101725.16;;;-6.44;96.39
72961;BME280;61141;46.204;19.774;2024-01-11T03:38:58;101714.28;;;-6.42;95.84
72961;BME280;61141;46.204;19.774;2024-01-11T03:42:00;101705.91;;;-6.28;96.91
72961;BME280;61141;46.204;19.774;2024-01-11T03:45:04;101683.38;;;-6.32;97.64
72961;BME280;61141;46.204;19.774;2024-01-11T03:48:06;101701.53;;;-6.22;97.26
72961;BME280;61141;46.204;19.774;2024-01-11T03:51:09;101712.94;;;-6.51;95.08
72961;BME280;61141;46.204;19.774;2024-01-11T03:54:12;101707.16;;;-6.30;95.84
72961;BME280;61141;46.204;19.774;2024-01-11T03:57:15;101698.97;;;-6.65;94.77
72961;BME280;61141;46.204;19.774;2024-01-11T04:00:18;101703.81;;;-6.98;94.20
72961;BME280;61141;46.204;19.774;2024-01-11T04:03:22;101701.84;;;-6.48;96.39
72961;BME280;61141;46.204;19.774;2024-01-11T04:06:25;101703.34;;;-6.52;96.45
72961;BME280;61141;46.204;19.774;2024-01-11T04:09:28;101696.88;;;-6.99;93.98
72961;BME280;61141;46.204;19.774;2024-01-11T04:12:31;101693.69;;;-6.90;94.75
72961;BME280;61141;46.204;19.774;2024-01-11T04:15:33;101686.75;;;-6.73;94.98
72961;BME280;61141;46.204;19.774;2024-01-11T04:18:36;101689.62;;;-6.56;96.17
72961;BME280;61141;46.204;19.774;2024-01-11T04:21:39;101686.91;;;-6.68;95.45
72961;BME280;61141;46.204;19.774;2024-01-11T04:24:43;101695.63;;;-6.42;96.35
72961;BME280;61141;46.204;19.774;2024-01-11T04:27:46;101686.59;;;-6.41;95.90
72961;BME280;61141;46.204;19.774;2024-01-11T04:30:48;101690.09;;;-6.59;93.36
72961;BME280;61141;46.204;19.774;2024-01-11T04:33:52;101683.06;;;-6.72;93.43
72961;BME280;61141;46.204;19.774;2024-01-11T04:36:55;101686.09;;;-6.20;95.37
72961;BME280;61141;46.204;19.774;2024-01-11T04:39:58;101682.62;;;-5.91;97.18
72961;BME280;61141;46.204;19.774;2024-01-11T04:43:02;101676.31;;;-6.38;94.85
72961;BME280;61141;46.204;19.774;2024-01-11T04:46:32;101689.41;;;-6.73;93.32
72961;BME280;61141;46.204;19.774;2024-01-11T04:49:35;101680.59;;;-7.09;92.75
72961;BME280;61141;46.204;19.774;2024-01-11T04:52:38;101680.91;;;-6.99;93.75
72961;BME280;61141;46.204;19.774;2024-01-11T04:55:40;101672.44;;;-7.33;93.22
72961;BME280;61141;46.204;19.774;2024-01-11T04:58:44;101672.75;;;-6.68;96.83
72961;BME280;61141;46.204;19.774;2024-01-11T05:01:47;101667.37;;;-6.43;95.71
72961;BME280;61141;46.204;19.774;2024-01-11T05:04:50;101658.59;;;-6.80;95.01
72961;BME280;61141;46.204;19.774;2024-01-11T05:07:53;101667.06;;;-6.53;96.00
72961;BME280;61141;46.204;19.774;2024-01-11T05:10:56;101672.75;;;-6.50;95.37
72961;BME280;61141;46.204;19.774;2024-01-11T05:13:58;101662.47;;;-6.65;93.57
72961;BME280;61141;46.204;19.774;2024-01-11T05:17:01;101681.72;;;-6.99;92.63
72961;BME280;61141;46.204;19.774;2024-01-11T05:20:05;101675.31;;;-7.34;92.35
72961;BME280;61141;46.204;19.774;2024-01-11T05:23:08;101667.53;;;-6.75;95.93
72961;BME280;61141;46.204;19.774;2024-01-11T05:26:13;101655.13;;;-6.99;94.04
72961;BME280;61141;46.204;19.774;2024-01-11T05:29:16;101678.97;;;-7.10;93.43
72961;BME280;61141;46.204;19.774;2024-01-11T05:32:18;101683.56;;;-7.42;93.36
72961;BME280;61141;46.204;19.774;2024-01-11T05:35:22;101676.00;;;-7.45;95.44
72961;BME280;61141;46.204;19.774;2024-01-11T05:38:30;101686.12;;;-7.54;95.06
72961;BME280;61141;46.204;19.774;2024-01-11T05:41:33;101681.59;;;-7.53;94.58
72961;BME280;61141;46.204;19.774;2024-01-11T05:44:36;101677.00;;;-7.64;93.99
72961;BME280;61141;46.204;19.774;2024-01-11T05:47:39;101671.03;;;-7.85;94.72
72961;BME280;61141;46.204;19.774;2024-01-11T05:50:42;101685.16;;;-7.59;94.65
72961;BME280;61141;46.204;19.774;2024-01-11T05:53:46;101681.34;;;-7.02;96.57
72961;BME280;61141;46.204;19.774;2024-01-11T05:56:49;101681.44;;;-6.73;97.30
72961;BME280;61141;46.204;19.774;2024-01-11T05:59:52;101682.56;;;-6.80;95.27
72961;BME280;61141;46.204;19.774;2024-01-11T06:02:55;101682.47;;;-7.10;93.38
72961;BME280;61141;46.204;19.774;2024-01-11T06:05:58;101688.03;;;-6.75;93.91
72961;BME280;61141;46.204;19.774;2024-01-11T06:09:01;101697.56;;;-6.86;93.23
72961;BME280;61141;46.204;19.774;2024-01-11T06:12:07;101697.31;;;-6.30;95.37
72961;BME280;61141;46.204;19.774;2024-01-11T06:15:09;101683.72;;;-6.94;94.09
72961;BME280;61141;46.204;19.774;2024-01-11T06:18:12;101683.94;;;-6.78;93.52
72961;BME280;61141;46.204;19.774;2024-01-11T06:21:15;101687.59;;;-7.15;90.77
72961;BME280;61141;46.204;19.774;2024-01-11T06:24:19;101694.56;;;-7.14;91.71
72961;BME280;61141;46.204;19.774;2024-01-11T06:27:22;101686.00;;;-7.16;91.66
72961;BME280;61141;46.204;19.774;2024-01-11T06:30:25;101687.78;;;-7.10;91.48
72961;BME280;61141;46.204;19.774;2024-01-11T06:33:28;101686.44;;;-7.44;90.96
72961;BME280;61141;46.204;19.774;2024-01-11T06:36:31;101693.56;;;-7.62;91.06
72961;BME280;61141;46.204;19.774;2024-01-11T06:39:34;101692.19;;;-7.04;92.96
72961;BME280;61141;46.204;19.774;2024-01-11T06:42:36;101689.66;;;-6.74;94.56
72961;BME280;61141;46.204;19.774;2024-01-11T06:45:40;101699.53;;;-6.45;95.49
72961;BME280;61141;46.204;19.774;2024-01-11T06:48:43;101696.81;;;-6.38;93.36
72961;BME280;61141;46.204;19.774;2024-01-11T06:51:46;101695.22;;;-6.28;93.70
72961;BME280;61141;46.204;19.774;2024-01-11T06:54:49;101699.88;;;-5.82;93.40
72961;BME280;61141;46.204;19.774;2024-01-11T06:57:52;101698.91;;;-6.11;90.74
72961;BME280;61141;46.204;19.774;2024-01-11T07:00:55;101696.09;;;-5.86;92.18
72961;BME280;61141;46.204;19.774;2024-01-11T07:03:58;101692.47;;;-6.21;90.40
72961;BME280;61141;46.204;19.774;2024-01-11T07:07:01;101695.72;;;-5.89;93.23
72961;BME280;61141;46.204;19.774;2024-01-11T07:10:07;101697.72;;;-5.73;92.58
72961;BME280;61141;46.204;19.774;2024-01-11T07:13:11;101693.66;;;-5.76;94.08
72961;BME280;61141;46.204;19.774;2024-01-11T07:16:15;101686.66;;;-5.12;93.41
72961;BME280;61141;46.204;19.774;2024-01-11T07:19:18;101688.97;;;-4.93;94.08
72961;BME280;61141;46.204;19.774;2024-01-11T07:22:21;101690.00;;;-4.82;94.43
72961;BME280;61141;46.204;19.774;2024-01-11T07:25:24;101686.66;;;-5.01;90.43
72961;BME280;61141;46.204;19.774;2024-01-11T07:28:27;101676.19;;;-5.37;89.21
72961;BME280;61141;46.204;19.774;2024-01-11T07:31:30;101677.44;;;-5.51;89.30
72961;BME280;61141;46.204;19.774;2024-01-11T07:34:32;101688.59;;;-5.54;89.57
72961;BME280;61141;46.204;19.774;2024-01-11T07:37:37;101685.81;;;-5.24;91.58
72961;BME280;61141;46.204;19.774;2024-01-11T07:40:39;101676.03;;;-4.72;91.99
72961;BME280;61141;46.204;19.774;2024-01-11T07:43:45;101678.19;;;-4.46;93.43
72961;BME280;61141;46.204;19.774;2024-01-11T07:46:56;101679.66;;;-4.39;93.91
72961;BME280;61141;46.204;19.774;2024-01-11T07:50:07;101675.44;;;-4.75;91.61
72961;BME280;61141;46.204;19.774;2024-01-11T07:53:10;101678.06;;;-4.11;94.45
72961;BME280;61141;46.204;19.774;2024-01-11T07:56:13;101678.69;;;-4.21;91.66
72961;BME280;61141;46.204;19.774;2024-01-11T07:59:16;101681.47;;;-3.99;91.64
72961;BME280;61141;46.204;19.774;2024-01-11T08:02:19;101683.56;;;-3.73;93.53
72961;BME280;61141;46.204;19.774;2024-01-11T08:05:22;101673.66;;;-3.39;93.24
72961;BME280;61141;46.204;19.774;2024-01-11T08:08:25;101670.44;;;-3.41;93.10
72961;BME280;61141;46.204;19.774;2024-01-11T08:11:29;101674.81;;;-3.19;93.87
72961;BME280;61141;46.204;19.774;2024-01-11T08:14:35;101665.94;;;-3.03;94.33
72961;BME280;61141;46.204;19.774;2024-01-11T08:17:39;101661.13;;;-3.01;93.78
72961;BME280;61141;46.204;19.774;2024-01-11T08:20:45;101658.41;;;-2.62;94.26
72961;BME280;61141;46.204;19.774;2024-01-11T08:23:48;101660.22;;;-2.24;94.84
72961;BME280;61141;46.204;19.774;2024-01-11T08:26:52;101651.19;;;-1.87;94.37
72961;BME280;61141;46.204;19.774;2024-01-11T08:29:55;101651.97;;;-1.91;92.37
72961;BME280;61141;46.204;19.774;2024-01-11T08:32:57;101650.09;;;-1.91;92.34
72961;BME280;61141;46.204;19.774;2024-01-11T08:36:00;101645.72;;;-1.70;93.10
72961;BME280;61141;46.204;19.774;2024-01-11T08:39:06;101647.09;;;-1.62;93.68
72961;BME280;61141;46.204;19.774;2024-01-11T08:42:09;101645.41;;;-1.73;92.88
72961;BME280;61141;46.204;19.774;2024-01-11T08:45:12;101638.44;;;-0.91;92.65
72961;BME280;61141;46.204;19.774;2024-01-11T08:48:21;101635.66;;;-1.16;92.28
72961;BME280;61141;46.204;19.774;2024-01-11T08:51:25;101633.22;;;-1.12;92.05
72961;BME280;61141;46.204;19.774;2024-01-11T08:54:28;101634.00;;;-1.17;92.00
72961;BME280;61141;46.204;19.774;2024-01-11T08:57:30;101617.88;;;-1.17;92.48
72961;BME280;61141;46.204;19.774;2024-01-11T09:00:33;101622.22;;;-1.11;91.99
72961;BME280;61141;46.204;19.774;2024-01-11T09:03:36;101620.25;;;-0.74;93.06
72961;BME280;61141;46.204;19.774;2024-01-11T09:06:39;101616.72;;;-0.84;92.04
72961;BME280;61141;46.204;19.774;2024-01-11T09:09:42;101614.50;;;-0.97;91.80
72961;BME280;61141;46.204;19.774;2024-01-11T09:12:58;101610.34;;;-1.20;93.53
72961;BME280;61141;46.204;19.774;2024-01-11T09:16:00;101605.84;;;-0.37;92.74
72961;BME280;61141;46.204;19.774;2024-01-11T09:19:03;101603.91;;;-0.52;92.12
72961;BME280;61141;46.204;19.774;2024-01-11T09:22:09;101597.84;;;-0.02;90.70
72961;BME280;61141;46.204;19.774;2024-01-11T09:25:13;101594.62;;;0.46;89.65
72961;BME280;61141;46.204;19.774;2024-01-11T09:28:16;101599.19;;;0.66;87.23
72961;BME280;61141;46.204;19.774;2024-01-11T09:31:19;101599.44;;;0.65;87.86
72961;BME280;61141;46.204;19.774;2024-01-11T09:34:22;101588.34;;;0.81;87.25
72961;BME280;61141;46.204;19.774;2024-01-11T09:37:25;101573.59;;;0.43;84.33
72961;BME280;61141;46.204;19.774;2024-01-11T09:40:27;101580.41;;;1.15;86.56
72961;BME280;61141;46.204;19.774;2024-01-11T09:43:31;101571.81;;;1.03;85.27
72961;BME280;61141;46.204;19.774;2024-01-11T09:46:35;101578.72;;;1.34;84.79
72961;BME280;61141;46.204;19.774;2024-01-11T09:49:40;101568.59;;;1.01;82.54
72961;BME280;61141;46.204;19.774;2024-01-11T09:52:47;101563.78;;;1.91;82.52
72961;BME280;61141;46.204;19.774;2024-01-11T09:55:53;101565.41;;;1.48;81.15
72961;BME280;61141;46.204;19.774;2024-01-11T09:58:58;101561.88;;;1.57;80.18
72961;BME280;61141;46.204;19.774;2024-01-11T10:02:02;101549.06;;;1.73;81.04
72961;BME280;61141;46.204;19.774;2024-01-11T10:05:06;101557.81;;;1.99;78.66
72961;BME280;61141;46.204;19.774;2024-01-11T10:08:11;101548.72;;;1.79;78.40
72961;BME280;61141;46.204;19.774;2024-01-11T10:11:14;101545.84;;;2.05;78.12
72961;BME280;61141;46.204;19.774;2024-01-11T10:14:17;101519.69;;;2.00;76.98
72961;BME280;61141;46.204;19.774;2024-01-11T10:17:20;101535.59;;;2.02;76.22
72961;BME280;61141;46.204;19.774;2024-01-11T10:20:27;101526.81;;;2.20;74.91
72961;BME280;61141;46.204;19.774;2024-01-11T10:23:33;101521.00;;;2.03;75.29
72961;BME280;61141;46.204;19.774;2024-01-11T10:26:36;101520.59;;;1.86;75.21
72961;BME280;61141;46.204;19.774;2024-01-11T10:29:39;101500.97;;;1.75;74.78
72961;BME280;61141;46.204;19.774;2024-01-11T10:32:43;101512.09;;;2.31;76.84
72961;BME280;61141;46.204;19.774;2024-01-11T10:35:47;101490.84;;;1.91;73.00
72961;BME280;61141;46.204;19.774;2024-01-11T10:38:53;101493.81;;;2.47;73.25
72961;BME280;61141;46.204;19.774;2024-01-11T10:42:04;101483.12;;;2.36;73.40
72961;BME280;61141;46.204;19.774;2024-01-11T10:45:14;101482.44;;;2.73;71.39
72961;BME280;61141;46.204;19.774;2024-01-11T10:48:21;101475.72;;;2.18;69.86
72961;BME280;61141;46.204;19.774;2024-01-11T10:51:25;101464.13;;;2.65;71.55
72961;BME280;61141;46.204;19.774;2024-01-11T10:54:31;101461.91;;;2.72;70.37
72961;BME280;61141;46.204;19.774;2024-01-11T10:57:35;101459.44;;;2.76;70.01
72961;BME280;61141;46.204;19.774;2024-01-11T11:00:39;101460.28;;;2.48;68.73
72961;BME280;61141;46.204;19.774;2024-01-11T11:03:43;101451.19;;;2.15;69.71
72961;BME280;61141;46.204;19.774;2024-01-11T11:06:50;101448.66;;;1.95;68.55
72961;BME280;61141;46.204;19.774;2024-01-11T11:09:55;101439.44;;;2.24;66.82
72961;BME280;61141;46.204;19.774;2024-01-11T11:12:59;101421.91;;;2.69;66.43
72961;BME280;61141;46.204;19.774;2024-01-11T11:16:03;101415.19;;;2.43;66.66
72961;BME280;61141;46.204;19.774;2024-01-11T11:19:09;101410.09;;;2.18;66.90
72961;BME280;61141;46.204;19.774;2024-01-11T11:22:13;101411.78;;;2.56;68.02
72961;BME280;61141;46.204;19.774;2024-01-11T11:25:24;101405.88;;;3.47;65.74
72961;BME280;61141;46.204;19.774;2024-01-11T11:28:27;101393.31;;;2.82;65.72
72961;BME280;61141;46.204;19.774;2024-01-11T11:31:41;101382.06;;;2.93;65.82
72961;BME280;61141;46.204;19.774;2024-01-11T11:34:44;101393.03;;;3.21;64.61
72961;BME280;61141;46.204;19.774;2024-01-11T11:37:48;101386.66;;;2.32;62.23
72961;BME280;61141;46.204;19.774;2024-01-11T11:40:56;101378.38;;;2.66;64.72
72961;BME280;61141;46.204;19.774;2024-01-11T11:44:04;101384.84;;;2.88;66.30
72961;BME280;61141;46.204;19.774;2024-01-11T11:47:33;101372.75;;;3.37;63.49
72961;BME280;61141;46.204;19.774;2024-01-11T11:50:37;101368.03;;;2.73;65.23
72961;BME280;61141;46.204;19.774;2024-01-11T11:53:40;101354.44;;;2.59;65.40
72961;BME280;61141;46.204;19.774;2024-01-11T11:56:44;101361.31;;;2.89;66.96
72961;BME280;61141;46.204;19.774;2024-01-11T11:59:48;101345.94;;;2.66;66.29
72961;BME280;61141;46.204;19.774;2024-01-11T12:02:52;101330.25;;;3.19;63.53
72961;BME280;61141;46.204;19.774;2024-01-11T12:05:59;101327.66;;;2.95;63.92
72961;BME280;61141;46.204;19.774;2024-01-11T12:09:02;101322.97;;;3.33;65.67
72961;BME280;61141;46.204;19.774;2024-01-11T12:12:06;101325.88;;;3.69;65.66
72961;BME280;61141;46.204;19.774;2024-01-11T12:15:17;101322.25;;;2.58;64.66
72961;BME280;61141;46.204;19.774;2024-01-11T12:18:21;101319.03;;;2.74;66.16
72961;BME280;61141;46.204;19.774;2024-01-11T12:21:25;101302.19;;;2.96;65.08
72961;BME280;61141;46.204;19.774;2024-01-11T12:24:29;101297.53;;;3.34;65.89
72961;BME280;61141;46.204;19.774;2024-01-11T12:27:33;101293.81;;;2.60;65.41
72961;BME280;61141;46.204;19.774;2024-01-11T12:30:36;101306.84;;;2.58;67.07
72961;BME280;61141;46.204;19.774;2024-01-11T12:33:39;101312.81;;;2.74;67.49
72961;BME280;61141;46.204;19.774;2024-01-11T12:36:44;101284.31;;;2.81;65.21
72961;BME280;61141;46.204;19.774;2024-01-11T12:39:47;101290.19;;;2.51;66.30
72961;BME280;61141;46.204;19.774;2024-01-11T12:42:50;101290.03;;;2.61;67.70
72961;BME280;61141;46.204;19.774;2024-01-11T12:45:53;101291.69;;;2.57;68.16
72961;BME280;61141;46.204;19.774;2024-01-11T12:48:57;101284.37;;;2.20;67.01
72961;BME280;61141;46.204;19.774;2024-01-11T12:51:59;101272.50;;;2.59;68.21
72961;BME280;61141;46.204;19.774;2024-01-11T12:55:03;101271.78;;;3.50;64.54
72961;BME280;61141;46.204;19.774;2024-01-11T12:58:08;101265.31;;;2.68;66.36
72961;BME280;61141;46.204;19.774;2024-01-11T13:01:14;101251.31;;;3.44;65.20
72961;BME280;61141;46.204;19.774;2024-01-11T13:04:17;101273.09;;;3.52;65.95
72961;BME280;61141;46.204;19.774;2024-01-11T13:07:21;101278.31;;;3.17;64.96
72961;BME280;61141;46.204;19.774;2024-01-11T13:10:25;101277.75;;;3.01;65.67
72961;BME280;61141;46.204;19.774;2024-01-11T13:13:30;101286.53;;;2.93;64.34
72961;BME280;61141;46.204;19.774;2024-01-11T13:16:33;101287.03;;;2.81;63.27
72961;BME280;61141;46.204;19.774;2024-01-11T13:19:37;101288.47;;;3.25;66.24
72961;BME280;61141;46.204;19.774;2024-01-11T13:22:41;101271.37;;;3.11;66.02
72961;BME280;61141;46.204;19.774;2024-01-11T13:25:44;101277.34;;;2.94;66.81
72961;BME280;61141;46.204;19.774;2024-01-11T13:28:48;101274.66;;;2.75;68.19
72961;BME280;61141;46.204;19.774;2024-01-11T13:31:52;101262.22;;;2.74;68.53
72961;BME280;61141;46.204;19.774;2024-01-11T13:34:54;101261.28;;;2.65;67.88
72961;BME280;61141;46.204;19.774;2024-01-11T13:37:58;101254.03;;;2.98;69.02
72961;BME280;61141;46.204;19.774;2024-01-11T13:41:01;101246.94;;;2.83;67.17
72961;BME280;61141;46.204;19.774;2024-01-11T13:44:04;101259.28;;;3.22;67.71
72961;BME280;61141;46.204;19.774;2024-01-11T13:47:08;101235.19;;;2.74;69.44
72961;BME280;61141;46.204;19.774;2024-01-11T13:50:11;101253.31;;;2.92;68.19
72961;BME280;61141;46.204;19.774;2024-01-11T13:53:15;101247.31;;;3.55;68.78
72961;BME280;61141;46.204;19.774;2024-01-11T13:56:18;101248.66;;;3.25;69.54
72961;BME280;61141;46.204;19.774;2024-01-11T13:59:22;101232.31;;;3.17;68.78
72961;BME280;61141;46.204;19.774;2024-01-11T14:02:26;101221.75;;;2.32;67.58
72961;BME280;61141;46.204;19.774;2024-01-11T14:05:29;101196.44;;;2.09;nan
72961;BME280;61141;46.204;19.774;2024-01-11T14:08:32;101192.16;;;2.41;74.66
72961;BME280;61141;46.204;19.774;2024-01-11T14:11:35;101201.88;;;2.60;73.74
72961;BME280;61141;46.204;19.774;2024-01-11T14:14:38;101187.13;;;2.53;73.13
72961;BME280;61141;46.204;19.774;2024-01-11T14:17:43;101207.28;;;2.60;72.32
72961;BME280;61141;46.204;19.774;2024-01-11T14:20:46;101195.06;;;2.63;72.53
72961;BME280;61141;46.204;19.774;2024-01-11T14:23:50;101189.09;;;2.79;74.09
72961;BME280;61141;46.204;19.774;2024-01-11T14:26:53;101190.31;;;2.73;72.83
72961;BME280;61141;46.204;19.774;2024-01-11T14:29:57;101184.59;;;2.24;74.21
72961;BME280;61141;46.204;19.774;2024-01-11T14:32:59;101183.88;;;2.37;74.19
72961;BME280;61141;46.204;19.774;2024-01-11T14:36:03;101171.28;;;2.27;74.02
72961;BME280;61141;46.204;19.774;2024-01-11T14:39:07;101187.88;;;2.40;75.22
72961;BME280;61141;46.204;19.774;2024-01-11T14:42:10;101164.62;;;1.83;73.87
72961;BME280;61141;46.204;19.774;2024-01-11T14:45:13;101167.41;;;1.77;74.36
72961;BME280;61141;46.204;19.774;2024-01-11T14:48:16;101157.84;;;1.85;76.68
72961;BME280;61141;46.204;19.774;2024-01-11T14:51:19;101182.69;;;1.68;75.51
72961;BME280;61141;46.204;19.774;2024-01-11T14:54:23;101183.28;;;1.60;75.25
72961;BME280;61141;46.204;19.774;2024-01-11T14:57:26;101174.69;;;1.58;76.35
72961;BME280;61141;46.204;19.774;2024-01-11T15:00:29;101165.16;;;1.42;77.62
72961;BME280;61141;46.204;19.774;2024-01-11T15:03:32;101169.31;;;1.35;77.23
72961;BME280;61141;46.204;19.774;2024-01-11T15:06:35;101163.59;;;1.36;79.58
72961;BME280;61141;46.204;19.774;2024-01-11T15:09:38;101154.72;;;1.12;78.73
72961;BME280;61141;46.204;19.774;2024-01-11T15:12:43;101155.84;;;1.06;80.98
72961;BME280;61141;46.204;19.774;2024-01-11T15:15:46;101134.91;;;0.69;80.15
72961;BME280;61141;46.204;19.774;2024-01-11T15:18:49;101127.53;;;0.51;81.72
72961;BME280;61141;46.204;19.774;2024-01-11T15:21:52;101131.06;;;0.75;81.71
72961;BME280;61141;46.204;19.774;2024-01-11T15:24:55;101145.84;;;0.83;83.04
72961;BME280;61141;46.204;19.774;2024-01-11T15:27:58;101150.38;;;0.58;81.99
72961;BME280;61141;46.204;19.774;2024-01-11T15:31:01;101158.72;;;0.62;82.00
72961;BME280;61141;46.204;19.774;2024-01-11T15:34:04;101154.63;;;0.65;83.64
72961;BME280;61141;46.204;19.774;2024-01-11T15:37:08;101135.91;;;0.49;82.67
72961;BME280;61141;46.204;19.774;2024-01-11T15:40:10;101137.28;;;0.47;83.27
72961;BME280;61141;46.204;19.774;2024-01-11T15:43:13;101136.78;;;0.40;84.33
72961;BME280;61141;46.204;19.774;2024-01-11T15:46:16;101137.69;;;0.30;84.79
72961;BME280;61141;46.204;19.774;2024-01-11T15:49:19;101141.47;;;0.58;87.21
72961;BME280;61141;46.204;19.774;2024-01-11T15:52:22;101139.03;;;0.62;86.33